sensor_id;sensor_type;location;lat;lon;timestamp;pressure;altitude;pressure_sealevel;temperature;humidity
75418;BME280;63997;52.112;5.420;2023-04-03T00:00:34;103217.41;;;3.25;72.05
75418;BME280;63997;52.112;5.420;2023-04-03T00:03:01;103221.47;;;3.21;72.01
75418;BME280;63997;52.112;5.420;2023-04-03T00:05:27;103230.41;;;3.20;72.00
75418;BME280;63997;52.112;5.420;2023-04-03T00:07:54;103227.16;;;3.18;72.09
75418;BME280;63997;52.112;5.420;2023-04-03T00:10:21;103227.16;;;3.18;72.01
75418;BME280;63997;52.112;5.420;2023-04-03T00:12:47;103239.72;;;3.16;71.50
75418;BME280;63997;52.112;5.420;2023-04-03T00:15:14;103239.31;;;3.12;71.52
75418;BME280;63997;52.112;5.420;2023-04-03T00:17:41;103236.09;;;3.10;71.69
75418;BME280;63997;52.112;5.420;2023-04-03T00:20:08;103238.94;;;3.09;71.75
75418;BME280;63997;52.112;5.420;2023-04-03T00:22:34;103232.47;;;3.05;71.79
75418;BME280;63997;52.112;5.420;2023-04-03T00:25:01;103234.50;;;3.03;71.89
75418;BME280;63997;52.112;5.420;2023-04-03T00:27:27;103234.72;;;3.01;71.95
75418;BME280;63997;52.112;5.420;2023-04-03T00:29:54;103236.75;;;2.99;72.06
75418;BME280;63997;52.112;5.420;2023-04-03T00:32:20;103237.78;;;2.98;72.04
75418;BME280;63997;52.112;5.420;2023-04-03T00:34:46;103240.00;;;2.95;72.46
75418;BME280;63997;52.112;5.420;2023-04-03T00:37:13;103236.78;;;2.92;72.70
75418;BME280;63997;52.112;5.420;2023-04-03T00:39:39;103235.13;;;2.91;72.22
75418;BME280;63997;52.112;5.420;2023-04-03T00:42:05;103237.19;;;2.89;72.49
75418;BME280;63997;52.112;5.420;2023-04-03T00:47:03;103248.13;;;2.86;72.38
75418;BME280;63997;52.112;5.420;2023-04-03T00:49:32;103248.13;;;2.86;72.55
75418;BME280;63997;52.112;5.420;2023-04-03T00:51:58;103248.31;;;2.85;72.82
75418;BME280;63997;52.112;5.420;2023-04-03T00:54:26;103248.53;;;2.83;73.61
75418;BME280;63997;52.112;5.420;2023-04-03T00:56:54;103253.78;;;2.83;73.54
75418;BME280;63997;52.112;5.420;2023-04-03T00:59:31;103259.88;;;2.77;73.34
75418;BME280;63997;52.112;5.420;2023-04-03T01:02:00;103253.00;;;2.76;73.38
75418;BME280;63997;52.112;5.420;2023-04-03T01:04:42;103257.63;;;2.74;73.72
75418;BME280;63997;52.112;5.420;2023-04-03T01:07:12;103255.44;;;2.71;73.32
75418;BME280;63997;52.112;5.420;2023-04-03T01:09:39;103262.69;;;2.69;73.25
75418;BME280;63997;52.112;5.420;2023-04-03T01:12:30;103259.47;;;2.67;73.69
75418;BME280;63997;52.112;5.420;2023-04-03T01:15:04;103263.13;;;2.66;73.83
75418;BME280;63997;52.112;5.420;2023-04-03T01:17:36;103261.50;;;2.65;73.98
75418;BME280;63997;52.112;5.420;2023-04-03T01:25:52;103265.78;;;2.59;74.49
75418;BME280;63997;52.112;5.420;2023-04-03T01:31:00;103263.34;;;2.51;74.95
75418;BME280;63997;52.112;5.420;2023-04-03T01:33:30;103259.31;;;2.49;75.25
75418;BME280;63997;52.112;5.420;2023-04-03T01:35:56;103260.53;;;2.46;75.22
75418;BME280;63997;52.112;5.420;2023-04-03T01:38:23;103260.94;;;2.43;75.24
75418;BME280;63997;52.112;5.420;2023-04-03T01:40:49;103264.19;;;2.38;75.42
75418;BME280;63997;52.112;5.420;2023-04-03T01:43:16;103262.94;;;2.41;75.66
75418;BME280;63997;52.112;5.420;2023-04-03T01:45:42;103260.97;;;2.36;75.46
75418;BME280;63997;52.112;5.420;2023-04-03T01:48:09;103253.47;;;2.33;75.58
75418;BME280;63997;52.112;5.420;2023-04-03T01:50:35;103258.13;;;2.31;75.48
75418;BME280;63997;52.112;5.420;2023-04-03T01:53:02;103253.91;;;2.30;75.54
75418;BME280;63997;52.112;5.420;2023-04-03T01:55:29;103253.06;;;2.30;75.75
75418;BME280;63997;52.112;5.420;2023-04-03T01:57:55;103255.31;;;2.26;75.58
75418;BME280;63997;52.112;5.420;2023-04-03T02:00:21;103263.56;;;2.23;75.99
75418;BME280;63997;52.112;5.420;2023-04-03T02:02:48;103266.63;;;2.20;76.45
75418;BME280;63997;52.112;5.420;2023-04-03T02:05:14;103260.16;;;2.16;76.48
75418;BME280;63997;52.112;5.420;2023-04-03T02:07:41;103263.38;;;2.11;76.64
75418;BME280;63997;52.112;5.420;2023-04-03T02:10:07;103261.97;;;2.09;76.77
75418;BME280;63997;52.112;5.420;2023-04-03T02:12:34;103267.03;;;2.04;76.82
75418;BME280;63997;52.112;5.420;2023-04-03T02:15:00;103281.53;;;2.00;76.97
75418;BME280;63997;52.112;5.420;2023-04-03T02:17:27;103280.31;;;1.96;77.06
75418;BME280;63997;52.112;5.420;2023-04-03T02:19:53;103281.34;;;1.95;77.16
75418;BME280;63997;52.112;5.420;2023-04-03T02:22:19;103283.16;;;1.94;77.30
75418;BME280;63997;52.112;5.420;2023-04-03T02:24:46;103283.56;;;1.91;77.37
75418;BME280;63997;52.112;5.420;2023-04-03T02:27:12;103281.75;;;1.92;77.44
75418;BME280;63997;52.112;5.420;2023-04-03T02:29:39;103276.50;;;1.92;77.27
75418;BME280;63997;52.112;5.420;2023-04-03T02:32:05;103270.25;;;1.86;77.65
75418;BME280;63997;52.112;5.420;2023-04-03T02:34:31;103275.47;;;1.79;77.52
75418;BME280;63997;52.112;5.420;2023-04-03T02:36:58;103272.22;;;1.77;77.86
75418;BME280;63997;52.112;5.420;2023-04-03T02:39:24;103278.28;;;1.71;78.09
75418;BME280;63997;52.112;5.420;2023-04-03T02:41:51;103275.22;;;1.68;78.25
75418;BME280;63997;52.112;5.420;2023-04-03T02:44:18;103281.91;;;1.70;78.95
75418;BME280;63997;52.112;5.420;2023-04-03T02:46:44;103283.53;;;1.71;79.06
75418;BME280;63997;52.112;5.420;2023-04-03T02:49:11;103286.16;;;1.71;79.32
75418;BME280;63997;52.112;5.420;2023-04-03T02:51:37;103285.13;;;1.72;79.11
75418;BME280;63997;52.112;5.420;2023-04-03T02:54:04;103295.84;;;1.71;79.24
75418;BME280;63997;52.112;5.420;2023-04-03T02:56:30;103293.41;;;1.69;79.28
75418;BME280;63997;52.112;5.420;2023-04-03T02:58:56;103290.78;;;1.69;79.29
75418;BME280;63997;52.112;5.420;2023-04-03T03:01:23;103298.66;;;1.69;79.43
75418;BME280;63997;52.112;5.420;2023-04-03T03:03:50;103296.22;;;1.68;79.67
75418;BME280;63997;52.112;5.420;2023-04-03T03:06:16;103299.84;;;1.67;79.78
75418;BME280;63997;52.112;5.420;2023-04-03T03:08:43;103311.34;;;1.66;79.87
75418;BME280;63997;52.112;5.420;2023-04-03T03:11:10;103315.78;;;1.65;80.03
75418;BME280;63997;52.112;5.420;2023-04-03T03:13:37;103318.00;;;1.62;79.68
75418;BME280;63997;52.112;5.420;2023-04-03T03:16:04;103319.81;;;1.61;79.79
75418;BME280;63997;52.112;5.420;2023-04-03T03:18:31;103317.78;;;1.56;79.82
75418;BME280;63997;52.112;5.420;2023-04-03T03:20:59;103317.19;;;1.54;79.97
75418;BME280;63997;52.112;5.420;2023-04-03T03:23:27;103320.22;;;1.58;80.28
75418;BME280;63997;52.112;5.420;2023-04-03T03:25:56;103309.09;;;1.56;80.35
75418;BME280;63997;52.112;5.420;2023-04-03T03:28:23;103315.34;;;1.55;80.61
75418;BME280;63997;52.112;5.420;2023-04-03T03:30:49;103311.31;;;1.52;80.75
75418;BME280;63997;52.112;5.420;2023-04-03T03:33:16;103323.00;;;1.50;80.70
75418;BME280;63997;52.112;5.420;2023-04-03T03:35:43;103322.41;;;1.48;81.14
75418;BME280;63997;52.112;5.420;2023-04-03T03:38:10;103318.16;;;1.47;81.22
75418;BME280;63997;52.112;5.420;2023-04-03T03:40:37;103319.34;;;1.44;81.31
75418;BME280;63997;52.112;5.420;2023-04-03T03:43:03;103314.91;;;1.45;81.37
75418;BME280;63997;52.112;5.420;2023-04-03T03:45:29;103320.56;;;1.42;81.50
75418;BME280;63997;52.112;5.420;2023-04-03T03:47:56;103318.13;;;1.40;81.54
75418;BME280;63997;52.112;5.420;2023-04-03T03:50:23;103316.50;;;1.39;81.56
75418;BME280;63997;52.112;5.420;2023-04-03T03:52:49;103317.72;;;1.37;81.37
75418;BME280;63997;52.112;5.420;2023-04-03T03:55:16;103320.53;;;1.35;81.47
75418;BME280;63997;52.112;5.420;2023-04-03T03:57:42;103326.97;;;1.32;81.92
75418;BME280;63997;52.112;5.420;2023-04-03T04:00:09;103325.34;;;1.31;81.64
75418;BME280;63997;52.112;5.420;2023-04-03T04:02:36;103329.59;;;1.32;82.04
75418;BME280;63997;52.112;5.420;2023-04-03T04:05:03;103318.50;;;1.30;82.08
75418;BME280;63997;52.112;5.420;2023-04-03T04:07:30;103323.13;;;1.28;82.21
75418;BME280;63997;52.112;5.420;2023-04-03T04:09:56;103330.97;;;1.28;82.17
75418;BME280;63997;52.112;5.420;2023-04-03T04:12:22;103321.91;;;1.24;81.75
75418;BME280;63997;52.112;5.420;2023-04-03T04:14:49;103331.75;;;1.22;82.13
75418;BME280;63997;52.112;5.420;2023-04-03T04:17:15;103331.34;;;1.19;81.95
75418;BME280;63997;52.112;5.420;2023-04-03T04:19:42;103331.34;;;1.19;82.03
75418;BME280;63997;52.112;5.420;2023-04-03T04:22:08;103337.41;;;1.19;82.14
75418;BME280;63997;52.112;5.420;2023-04-03T04:24:34;103345.03;;;1.14;82.13
75418;BME280;63997;52.112;5.420;2023-04-03T04:27:03;103344.41;;;1.12;82.60
75418;BME280;63997;52.112;5.420;2023-04-03T04:29:30;103347.03;;;1.12;82.73
75418;BME280;63997;52.112;5.420;2023-04-03T04:32:02;103340.81;;;1.13;82.77
75418;BME280;63997;52.112;5.420;2023-04-03T04:34:28;103345.41;;;1.11;82.79
75418;BME280;63997;52.112;5.420;2023-04-03T04:36:56;103345.00;;;1.08;82.83
75418;BME280;63997;52.112;5.420;2023-04-03T04:39:22;103349.19;;;1.02;82.75
75418;BME280;63997;52.112;5.420;2023-04-03T04:41:49;103343.72;;;0.97;82.49
75418;BME280;63997;52.112;5.420;2023-04-03T04:44:15;103351.97;;;0.94;82.68
75418;BME280;63997;52.112;5.420;2023-04-03T04:46:42;103354.78;;;0.92;82.65
75418;BME280;63997;52.112;5.420;2023-04-03T04:49:08;103356.59;;;0.92;82.97
75418;BME280;63997;52.112;5.420;2023-04-03T04:51:34;103361.84;;;0.92;83.04
75418;BME280;63997;52.112;5.420;2023-04-03T04:54:17;103351.97;;;0.94;83.17
75418;BME280;63997;52.112;5.420;2023-04-03T04:56:43;103349.97;;;0.96;83.08
75418;BME280;63997;52.112;5.420;2023-04-03T04:59:10;103352.75;;;0.94;83.04
75418;BME280;63997;52.112;5.420;2023-04-03T05:01:36;103349.75;;;0.91;83.07
75418;BME280;63997;52.112;5.420;2023-04-03T05:04:03;103359.00;;;0.93;83.24
75418;BME280;63997;52.112;5.420;2023-04-03T05:06:29;103346.13;;;0.92;83.11
75418;BME280;63997;52.112;5.420;2023-04-03T05:08:58;103351.34;;;0.92;83.17
75418;BME280;63997;52.112;5.420;2023-04-03T05:11:24;103354.16;;;0.90;83.04
75418;BME280;63997;52.112;5.420;2023-04-03T05:13:52;103364.25;;;0.93;83.03
75418;BME280;63997;52.112;5.420;2023-04-03T05:16:18;103357.00;;;0.95;83.29
75418;BME280;63997;52.112;5.420;2023-04-03T05:18:44;103356.19;;;0.95;83.08
75418;BME280;63997;52.112;5.420;2023-04-03T05:21:11;103362.25;;;0.95;83.21
75418;BME280;63997;52.112;5.420;2023-04-03T05:23:37;103363.06;;;0.96;83.19
75418;BME280;63997;52.112;5.420;2023-04-03T05:26:04;103370.72;;;0.97;83.19
75418;BME280;63997;52.112;5.420;2023-04-03T05:28:30;103370.53;;;0.99;83.22
75418;BME280;63997;52.112;5.420;2023-04-03T05:30:57;103374.16;;;0.98;83.08
75418;BME280;63997;52.112;5.420;2023-04-03T05:33:25;103377.78;;;0.97;83.04
75418;BME280;63997;52.112;5.420;2023-04-03T05:35:53;103373.16;;;0.99;83.11
75418;BME280;63997;52.112;5.420;2023-04-03T05:38:20;103377.38;;;1.00;83.23
75418;BME280;63997;52.112;5.420;2023-04-03T05:40:47;103372.78;;;1.02;82.87
75418;BME280;63997;52.112;5.420;2023-04-03T05:43:13;103376.38;;;1.01;82.83
75418;BME280;63997;52.112;5.420;2023-04-03T05:45:40;103385.47;;;1.05;82.91
75418;BME280;63997;52.112;5.420;2023-04-03T05:48:06;103386.13;;;1.07;82.97
75418;BME280;63997;52.112;5.420;2023-04-03T05:50:33;103383.72;;;1.12;82.85
75418;BME280;63997;52.112;5.420;2023-04-03T05:52:59;103382.91;;;1.12;83.02
75418;BME280;63997;52.112;5.420;2023-04-03T05:55:28;103388.56;;;1.15;82.90
75418;BME280;63997;52.112;5.420;2023-04-03T05:57:54;103387.56;;;1.16;82.76
75418;BME280;63997;52.112;5.420;2023-04-03T06:00:21;103400.09;;;1.21;82.85
75418;BME280;63997;52.112;5.420;2023-04-03T06:02:47;103396.72;;;1.27;82.65
75418;BME280;63997;52.112;5.420;2023-04-03T06:05:14;103398.75;;;1.31;82.71
75418;BME280;63997;52.112;5.420;2023-04-03T06:07:41;103403.22;;;1.38;82.66
75418;BME280;63997;52.112;5.420;2023-04-03T06:10:11;103403.44;;;1.43;82.43
75418;BME280;63997;52.112;5.420;2023-04-03T06:12:38;103405.28;;;1.49;82.57
75418;BME280;63997;52.112;5.420;2023-04-03T06:15:05;103400.50;;;1.59;82.53
75418;BME280;63997;52.112;5.420;2023-04-03T06:17:31;103403.88;;;2.07;83.57
75418;BME280;63997;52.112;5.420;2023-04-03T06:19:58;103400.31;;;2.68;82.49
75418;BME280;63997;52.112;5.420;2023-04-03T06:22:24;103401.47;;;3.25;80.35
75418;BME280;63997;52.112;5.420;2023-04-03T06:24:51;103404.25;;;3.50;79.42
75418;BME280;63997;52.112;5.420;2023-04-03T06:27:18;103406.59;;;4.91;78.46
75418;BME280;63997;52.112;5.420;2023-04-03T06:29:44;103398.16;;;6.34;73.33
75418;BME280;63997;52.112;5.420;2023-04-03T06:32:11;103394.25;;;7.31;69.86
75418;BME280;63997;52.112;5.420;2023-04-03T06:34:37;103393.25;;;7.08;68.00
75418;BME280;63997;52.112;5.420;2023-04-03T06:37:04;103389.88;;;7.25;66.53
75418;BME280;63997;52.112;5.420;2023-04-03T06:39:30;103403.44;;;7.68;65.77
75418;BME280;63997;52.112;5.420;2023-04-03T06:41:57;103400.91;;;8.19;63.34
75418;BME280;63997;52.112;5.420;2023-04-03T06:44:23;103396.97;;;9.27;62.39
75418;BME280;63997;52.112;5.420;2023-04-03T06:46:49;103397.16;;;11.66;56.29
75418;BME280;63997;52.112;5.420;2023-04-03T06:49:18;103395.19;;;13.74;48.72
75418;BME280;63997;52.112;5.420;2023-04-03T06:51:44;103384.13;;;16.01;44.82
75418;BME280;63997;52.112;5.420;2023-04-03T06:54:10;103376.50;;;18.36;40.25
75418;BME280;63997;52.112;5.420;2023-04-03T06:56:37;103385.03;;;20.04;35.87
75418;BME280;63997;52.112;5.420;2023-04-03T06:59:03;103388.94;;;21.21;32.32
75418;BME280;63997;52.112;5.420;2023-04-03T07:01:30;103389.66;;;22.05;29.97
75418;BME280;63997;52.112;5.420;2023-04-03T07:03:57;103377.81;;;23.20;27.76
75418;BME280;63997;52.112;5.420;2023-04-03T07:06:23;103388.00;;;23.79;26.23
75418;BME280;63997;52.112;5.420;2023-04-03T07:08:53;103389.22;;;24.25;25.34
75418;BME280;63997;52.112;5.420;2023-04-03T07:11:20;103397.59;;;24.84;24.65
75418;BME280;63997;52.112;5.420;2023-04-03T07:13:46;103401.47;;;25.18;23.72
75418;BME280;63997;52.112;5.420;2023-04-03T07:16:13;103409.03;;;25.44;23.32
75418;BME280;63997;52.112;5.420;2023-04-03T07:18:39;103409.00;;;25.82;22.10
75418;BME280;63997;52.112;5.420;2023-04-03T07:21:06;103416.38;;;25.63;21.55
75418;BME280;63997;52.112;5.420;2023-04-03T07:23:32;103413.31;;;26.06;21.20
75418;BME280;63997;52.112;5.420;2023-04-03T07:25:59;103415.03;;;25.33;22.26
75418;BME280;63997;52.112;5.420;2023-04-03T07:28:25;103419.25;;;25.12;22.26
75418;BME280;63997;52.112;5.420;2023-04-03T07:31:12;103433.94;;;22.67;24.99
75418;BME280;63997;52.112;5.420;2023-04-03T07:33:40;103423.78;;;23.01;24.63
75418;BME280;63997;52.112;5.420;2023-04-03T07:36:08;103427.56;;;23.36;23.67
75418;BME280;63997;52.112;5.420;2023-04-03T07:38:35;103430.06;;;23.41;23.27
75418;BME280;63997;52.112;5.420;2023-04-03T07:41:03;103424.88;;;22.26;25.80
75418;BME280;63997;52.112;5.420;2023-04-03T07:43:29;103432.13;;;22.83;23.79
75418;BME280;63997;52.112;5.420;2023-04-03T07:45:56;103444.09;;;21.17;25.71
75418;BME280;63997;52.112;5.420;2023-04-03T07:48:24;103456.44;;;19.11;29.20
75418;BME280;63997;52.112;5.420;2023-04-03T07:50:51;103451.78;;;17.87;31.31
75418;BME280;63997;52.112;5.420;2023-04-03T07:53:18;103444.56;;;18.72;29.32
75418;BME280;63997;52.112;5.420;2023-04-03T07:55:48;103444.34;;;19.00;30.37
75418;BME280;63997;52.112;5.420;2023-04-03T07:58:16;103449.06;;;20.21;27.87
75418;BME280;63997;52.112;5.420;2023-04-03T08:00:43;103446.47;;;20.89;26.53
75418;BME280;63997;52.112;5.420;2023-04-03T08:03:11;103443.03;;;19.54;27.27
75418;BME280;63997;52.112;5.420;2023-04-03T08:05:42;103451.53;;;17.48;30.02
75418;BME280;63997;52.112;5.420;2023-04-03T08:08:14;103452.25;;;16.38;32.18
75418;BME280;63997;52.112;5.420;2023-04-03T08:10:40;103455.44;;;15.27;33.60
75418;BME280;63997;52.112;5.420;2023-04-03T08:13:08;103458.28;;;14.19;35.33
75418;BME280;63997;52.112;5.420;2023-04-03T08:15:35;103468.06;;;13.50;36.00
75418;BME280;63997;52.112;5.420;2023-04-03T08:18:03;103472.91;;;13.43;36.22
75418;BME280;63997;52.112;5.420;2023-04-03T08:20:30;103472.88;;;14.03;35.00
75418;BME280;63997;52.112;5.420;2023-04-03T08:22:56;103470.72;;;13.50;35.91
75418;BME280;63997;52.112;5.420;2023-04-03T08:25:23;103471.34;;;13.32;36.24
75418;BME280;63997;52.112;5.420;2023-04-03T08:27:49;103473.75;;;13.18;37.24
75418;BME280;63997;52.112;5.420;2023-04-03T08:30:16;103478.69;;;13.66;36.13
75418;BME280;63997;52.112;5.420;2023-04-03T08:32:42;103484.13;;;13.45;35.15
75418;BME280;63997;52.112;5.420;2023-04-03T08:35:10;103489.59;;;12.69;36.58
75418;BME280;63997;52.112;5.420;2023-04-03T08:37:37;103482.56;;;13.29;35.99
75418;BME280;63997;52.112;5.420;2023-04-03T08:40:06;103488.97;;;13.33;35.15
75418;BME280;63997;52.112;5.420;2023-04-03T08:45:52;103496.25;;;12.31;36.77
75418;BME280;63997;52.112;5.420;2023-04-03T08:48:21;103494.38;;;12.92;36.37
75418;BME280;63997;52.112;5.420;2023-04-03T08:50:56;103491.16;;;13.26;34.52
75418;BME280;63997;52.112;5.420;2023-04-03T08:53:28;103487.97;;;13.04;35.12
75418;BME280;63997;52.112;5.420;2023-04-03T08:55:58;103478.63;;;12.20;34.37
75418;BME280;63997;52.112;5.420;2023-04-03T08:58:30;103490.97;;;11.63;35.86
75418;BME280;63997;52.112;5.420;2023-04-03T09:01:02;103495.06;;;11.23;36.81
75418;BME280;63997;52.112;5.420;2023-04-03T09:03:36;103493.75;;;10.89;37.15
75418;BME280;63997;52.112;5.420;2023-04-03T09:06:50;103491.06;;;10.51;37.45
75418;BME280;63997;52.112;5.420;2023-04-03T09:09:12;103492.28;;;9.90;35.53
75418;BME280;63997;52.112;5.420;2023-04-03T09:14:46;103477.81;;;9.59;37.55
75418;BME280;63997;52.112;5.420;2023-04-03T09:17:33;103495.06;;;9.56;37.45
75418;BME280;63997;52.112;5.420;2023-04-03T09:22:52;103494.03;;;9.18;35.63
75418;BME280;63997;52.112;5.420;2023-04-03T09:25:25;103501.19;;;9.01;35.54
75418;BME280;63997;52.112;5.420;2023-04-03T09:27:53;103495.50;;;9.09;37.18
75418;BME280;63997;52.112;5.420;2023-04-03T09:30:22;103498.53;;;9.01;36.91
75418;BME280;63997;52.112;5.420;2023-04-03T09:32:54;103487.53;;;9.09;37.25
75418;BME280;63997;52.112;5.420;2023-04-03T09:40:48;103483.91;;;9.15;36.12
75418;BME280;63997;52.112;5.420;2023-04-03T09:43:23;103484.22;;;9.02;35.26
75418;BME280;63997;52.112;5.420;2023-04-03T09:45:51;103476.06;;;8.87;35.33
75418;BME280;63997;52.112;5.420;2023-04-03T09:48:22;103478.63;;;8.82;34.81
75418;BME280;63997;52.112;5.420;2023-04-03T09:55:55;103469.19;;;8.91;34.27
75418;BME280;63997;52.112;5.420;2023-04-03T09:58:38;103459.78;;;8.83;33.40
75418;BME280;63997;52.112;5.420;2023-04-03T10:01:34;103463.34;;;8.72;34.80
75418;BME280;63997;52.112;5.420;2023-04-03T10:06:39;103455.19;;;8.95;33.81
75418;BME280;63997;52.112;5.420;2023-04-03T10:09:23;103454.81;;;8.87;33.46
75418;BME280;63997;52.112;5.420;2023-04-03T10:12:01;103438.56;;;9.00;34.31
75418;BME280;63997;52.112;5.420;2023-04-03T10:14:29;103440.19;;;9.23;33.97
75418;BME280;63997;52.112;5.420;2023-04-03T10:19:51;103450.69;;;9.35;33.31
75418;BME280;63997;52.112;5.420;2023-04-03T10:22:29;103437.56;;;9.45;33.49
75418;BME280;63997;52.112;5.420;2023-04-03T10:25:06;103431.25;;;9.51;32.49
75418;BME280;63997;52.112;5.420;2023-04-03T10:30:20;103425.38;;;9.49;32.20
75418;BME280;63997;52.112;5.420;2023-04-03T10:46:42;103390.47;;;9.62;32.67
75418;BME280;63997;52.112;5.420;2023-04-03T10:52:17;103379.19;;;9.77;33.46
75418;BME280;63997;52.112;5.420;2023-04-03T10:57:50;103392.72;;;10.02;32.07
75418;BME280;63997;52.112;5.420;2023-04-03T11:00:27;103398.84;;;10.03;30.86
75418;BME280;63997;52.112;5.420;2023-04-03T11:02:59;103393.19;;;9.94;31.72
75418;BME280;63997;52.112;5.420;2023-04-03T11:05:31;103379.38;;;9.97;32.08
75418;BME280;63997;52.112;5.420;2023-04-03T11:08:05;103373.34;;;10.07;31.77
75418;BME280;63997;52.112;5.420;2023-04-03T11:10:45;103385.75;;;10.23;33.51
75418;BME280;63997;52.112;5.420;2023-04-03T11:13:17;103378.13;;;10.37;33.42
75418;BME280;63997;52.112;5.420;2023-04-03T11:15:44;103377.41;;;10.47;32.99
75418;BME280;63997;52.112;5.420;2023-04-03T11:18:15;103372.66;;;10.54;33.19
75418;BME280;63997;52.112;5.420;2023-04-03T11:20:52;103380.63;;;10.49;32.73
75418;BME280;63997;52.112;5.420;2023-04-03T11:23:26;103372.53;;;10.33;33.15
75418;BME280;63997;52.112;5.420;2023-04-03T11:26:11;103375.28;;;10.49;33.41
75418;BME280;63997;52.112;5.420;2023-04-03T11:28:38;103363.16;;;10.63;33.39
75418;BME280;63997;52.112;5.420;2023-04-03T11:34:26;103367.91;;;11.03;34.37
75418;BME280;63997;52.112;5.420;2023-04-03T11:36:58;103377.81;;;11.18;33.65
75418;BME280;63997;52.112;5.420;2023-04-03T11:39:30;103374.13;;;11.29;33.30
75418;BME280;63997;52.112;5.420;2023-04-03T11:44:42;103360.03;;;11.39;33.12
75418;BME280;63997;52.112;5.420;2023-04-03T11:47:10;103360.03;;;11.39;33.58
75418;BME280;63997;52.112;5.420;2023-04-03T12:05:54;103352.94;;;11.80;32.21
75418;BME280;63997;52.112;5.420;2023-04-03T12:08:28;103348.44;;;11.96;33.35
75418;BME280;63997;52.112;5.420;2023-04-03T12:27:02;103319.34;;;12.00;32.90
75418;BME280;63997;52.112;5.420;2023-04-03T12:29:35;103321.22;;;12.14;32.90
75418;BME280;63997;52.112;5.420;2023-04-03T12:48:22;103295.34;;;11.95;31.76
75418;BME280;63997;52.112;5.420;2023-04-03T12:50:52;103290.03;;;12.05;30.82
75418;BME280;63997;52.112;5.420;2023-04-03T12:53:21;103288.16;;;11.75;31.28
75418;BME280;63997;52.112;5.420;2023-04-03T12:55:56;103282.03;;;11.89;33.32
75418;BME280;63997;52.112;5.420;2023-04-03T12:58:27;103280.97;;;11.85;32.96
75418;BME280;63997;52.112;5.420;2023-04-03T13:01:03;103268.69;;;12.10;32.67
75418;BME280;63997;52.112;5.420;2023-04-03T13:03:29;103270.53;;;12.30;34.50
75418;BME280;63997;52.112;5.420;2023-04-03T13:06:00;103260.66;;;12.30;31.74
75418;BME280;63997;52.112;5.420;2023-04-03T13:08:27;103254.25;;;12.21;33.05
75418;BME280;63997;52.112;5.420;2023-04-03T13:11:10;103259.06;;;12.29;32.70
75418;BME280;63997;52.112;5.420;2023-04-03T13:13:37;103261.72;;;12.24;32.70
75418;BME280;63997;52.112;5.420;2023-04-03T13:16:11;103252.38;;;12.22;31.48
75418;BME280;63997;52.112;5.420;2023-04-03T13:18:38;103264.91;;;12.26;33.40
75418;BME280;63997;52.112;5.420;2023-04-03T13:21:07;103254.22;;;12.31;33.49
75418;BME280;63997;52.112;5.420;2023-04-03T13:23:40;103240.88;;;12.41;33.09
75418;BME280;63997;52.112;5.420;2023-04-03T13:26:07;103241.63;;;12.57;33.27
75418;BME280;63997;52.112;5.420;2023-04-03T13:28:34;103241.63;;;12.52;31.90
75418;BME280;63997;52.112;5.420;2023-04-03T13:33:34;103249.31;;;12.69;33.17
75418;BME280;63997;52.112;5.420;2023-04-03T13:36:07;103236.78;;;12.59;31.95
75418;BME280;63997;52.112;5.420;2023-04-03T13:38:35;103246.66;;;12.59;32.61
75418;BME280;63997;52.112;5.420;2023-04-03T13:41:21;103242.94;;;12.55;32.70
75418;BME280;63997;52.112;5.420;2023-04-03T13:43:48;103245.06;;;12.63;32.39
75418;BME280;63997;52.112;5.420;2023-04-03T13:48:47;103255.50;;;12.54;33.01
75418;BME280;63997;52.112;5.420;2023-04-03T13:53:47;103261.09;;;12.58;32.20
75418;BME280;63997;52.112;5.420;2023-04-03T13:56:20;103249.38;;;12.49;32.09
75418;BME280;63997;52.112;5.420;2023-04-03T13:59:03;103244.56;;;12.45;32.34
75418;BME280;63997;52.112;5.420;2023-04-03T14:01:40;103245.72;;;12.24;31.34
75418;BME280;63997;52.112;5.420;2023-04-03T14:04:20;103252.16;;;11.93;32.08
75418;BME280;63997;52.112;5.420;2023-04-03T14:06:48;103239.06;;;12.06;32.88
75418;BME280;63997;52.112;5.420;2023-04-03T14:09:17;103241.97;;;12.30;32.38
75418;BME280;63997;52.112;5.420;2023-04-03T14:11:45;103236.63;;;12.35;32.74
75418;BME280;63997;52.112;5.420;2023-04-03T14:14:15;103232.56;;;12.43;33.39
75418;BME280;63997;52.112;5.420;2023-04-03T14:16:45;103240.28;;;12.50;33.09
75418;BME280;63997;52.112;5.420;2023-04-03T14:19:19;103230.97;;;12.47;31.98
75418;BME280;63997;52.112;5.420;2023-04-03T14:21:47;103223.28;;;12.30;32.07
75418;BME280;63997;52.112;5.420;2023-04-03T14:24:14;103218.97;;;12.34;33.32
75418;BME280;63997;52.112;5.420;2023-04-03T14:26:40;103213.16;;;12.22;32.52
75418;BME280;63997;52.112;5.420;2023-04-03T14:29:10;103216.41;;;12.04;32.99
75418;BME280;63997;52.112;5.420;2023-04-03T14:31:37;103212.38;;;12.11;32.38
75418;BME280;63997;52.112;5.420;2023-04-03T14:34:03;103216.16;;;12.00;32.94
75418;BME280;63997;52.112;5.420;2023-04-03T14:36:30;103205.22;;;12.02;32.56
75418;BME280;63997;52.112;5.420;2023-04-03T14:38:57;103196.69;;;11.89;33.80
75418;BME280;63997;52.112;5.420;2023-04-03T14:41:25;103198.56;;;11.94;34.12
75418;BME280;63997;52.112;5.420;2023-04-03T14:43:52;103192.41;;;12.04;31.98
75418;BME280;63997;52.112;5.420;2023-04-03T14:46:31;103208.97;;;11.90;33.24
75418;BME280;63997;52.112;5.420;2023-04-03T14:49:20;103198.31;;;11.80;33.95
75418;BME280;63997;52.112;5.420;2023-04-03T14:51:48;103208.97;;;11.90;33.93
75418;BME280;63997;52.112;5.420;2023-04-03T14:54:17;103196.69;;;12.00;33.97
75418;BME280;63997;52.112;5.420;2023-04-03T14:56:45;103200.94;;;12.01;34.11
75418;BME280;63997;52.112;5.420;2023-04-03T14:59:13;103195.09;;;11.94;33.92
75418;BME280;63997;52.112;5.420;2023-04-03T15:01:41;103198.03;;;11.77;34.66
75418;BME280;63997;52.112;5.420;2023-04-03T15:04:19;103196.97;;;11.83;34.46